createdAt,value
2022-10-17T00:01:06.832Z,82.87
2022-10-17T00:03:37.880Z,82.94
2022-10-17T00:06:13.287Z,82.85
2022-10-17T00:08:41.905Z,83.22
2022-10-17T00:11:15.502Z,82.97
2022-10-17T00:13:44.179Z,82.06
2022-10-17T00:16:14.251Z,82.37
2022-10-17T00:18:43.514Z,82.06
2022-10-17T00:21:16.916Z,81.96
2022-10-17T00:23:50.542Z,81.34
2022-10-17T00:26:21.647Z,80.01
2022-10-17T00:28:52.976Z,79.84
2022-10-17T00:31:25.474Z,80.63
2022-10-17T00:33:55.097Z,81.01
2022-10-17T00:36:24.912Z,80.43
2022-10-17T00:38:54.824Z,81.59
2022-10-17T00:41:26.673Z,81.25
2022-10-17T00:43:58.535Z,81.62
2022-10-17T00:46:27.886Z,81.42
2022-10-17T00:48:57.214Z,82.07
2022-10-17T00:51:30.739Z,82.84
2022-10-17T00:53:59.261Z,83.07
2022-10-17T00:56:28.523Z,82.95
2022-10-17T00:58:57.139Z,83.00
2022-10-17T01:01:24.919Z,82.71
2022-10-17T01:03:52.622Z,82.39
2022-10-17T01:06:20.381Z,82.49
2022-10-17T01:08:48.128Z,81.85
2022-10-17T01:11:31.617Z,82.08
2022-10-17T01:14:06.285Z,82.28
2022-10-17T01:16:43.074Z,82.25
2022-10-17T01:19:42.067Z,82.79
2022-10-17T01:22:15.107Z,82.77
2022-10-17T01:24:56.106Z,82.91
2022-10-17T01:27:38.371Z,83.05
2022-10-17T01:30:42.613Z,83.35
2022-10-17T01:33:18.137Z,83.81
2022-10-17T01:35:53.278Z,82.97
2022-10-17T01:38:24.472Z,83.21
2022-10-17T01:41:00.583Z,84.06
2022-10-17T01:43:35.566Z,83.96
2022-10-17T01:46:12.236Z,84.08
2022-10-17T01:48:45.036Z,83.77
2022-10-17T01:51:17.977Z,83.85
2022-10-17T01:53:52.401Z,83.96
2022-10-17T01:56:22.351Z,84.28
2022-10-17T01:58:53.963Z,84.34
2022-10-17T02:01:29.266Z,84.33
2022-10-17T02:03:59.880Z,84.39
2022-10-17T02:06:27.982Z,84.12
2022-10-17T02:08:55.666Z,84.27
2022-10-17T02:11:26.263Z,84.68
2022-10-17T02:16:56.722Z,84.50
2022-10-17T02:19:48.531Z,82.86
2022-10-17T02:22:20.700Z,83.02
2022-10-17T02:24:52.598Z,83.08
2022-10-17T02:27:24.989Z,84.86
2022-10-17T02:29:59.041Z,86.65
2022-10-17T02:32:34.568Z,87.18
2022-10-17T02:35:05.827Z,87.35
2022-10-17T02:37:35.095Z,87.20
2022-10-17T02:40:07.005Z,86.36
2022-10-17T02:42:35.910Z,86.41
2022-10-17T02:45:04.958Z,86.25
2022-10-17T02:47:39.447Z,85.38
2022-10-17T02:50:07.781Z,85.92
2022-10-17T02:52:43.922Z,86.15
2022-10-17T02:55:17.312Z,85.17
2022-10-17T02:57:48.786Z,85.14
2022-10-17T03:00:17.738Z,85.79
2022-10-17T03:02:49.309Z,85.92
2022-10-17T03:05:17.877Z,85.27
2022-10-17T03:07:45.599Z,83.16
2022-10-17T03:10:13.596Z,84.84
2022-10-17T03:12:43.383Z,86.92
2022-10-17T03:15:13.172Z,87.47
2022-10-17T03:17:40.814Z,87.35
2022-10-17T03:20:10.670Z,87.34
2022-10-17T03:22:38.451Z,87.41
2022-10-17T03:25:06.666Z,85.53
2022-10-17T03:27:34.220Z,86.57
2022-10-17T03:30:02.240Z,86.92
2022-10-17T03:32:30.109Z,87.65
2022-10-17T03:34:57.624Z,87.31
2022-10-17T03:37:26.888Z,87.37
2022-10-17T03:39:54.599Z,86.86
2022-10-17T03:42:22.251Z,87.80
2022-10-17T03:44:50.786Z,86.35
2022-10-17T03:47:18.353Z,87.48
2022-10-17T03:49:47.187Z,88.16
2022-10-17T03:52:15.246Z,87.93
2022-10-17T03:54:44.285Z,88.45
2022-10-17T03:57:11.865Z,88.43
2022-10-17T03:59:39.832Z,88.79
2022-10-17T04:02:07.376Z,88.26
2022-10-17T04:04:35.554Z,89.02
2022-10-17T04:07:03.552Z,89.26
2022-10-17T04:09:33.247Z,88.83
2022-10-17T04:12:02.472Z,88.59
2022-10-17T04:14:30.267Z,88.68
2022-10-17T04:16:58.584Z,88.63
2022-10-17T04:19:26.489Z,88.56
2022-10-17T04:21:54.340Z,89.02
2022-10-17T04:24:22.416Z,89.18
2022-10-17T04:26:52.844Z,88.86
2022-10-17T04:29:24.452Z,89.23
2022-10-17T04:31:52.460Z,89.16
2022-10-17T04:34:20.073Z,88.79
2022-10-17T04:36:48.246Z,88.49
2022-10-17T04:39:15.778Z,88.43
2022-10-17T04:41:43.369Z,88.63
2022-10-17T04:44:11.253Z,88.97
2022-10-17T04:46:40.518Z,89.08
2022-10-17T04:49:08.525Z,89.10
2022-10-17T04:51:36.221Z,89.55
2022-10-17T04:54:05.680Z,89.70
2022-10-17T04:56:34.862Z,88.56
2022-10-17T04:59:03.039Z,87.37
2022-10-17T05:01:30.825Z,87.83
2022-10-17T05:03:59.974Z,87.61
2022-10-17T05:06:27.720Z,87.51
2022-10-17T05:08:55.490Z,87.95
2022-10-17T05:11:24.612Z,87.85
2022-10-17T05:13:56.914Z,88.32
2022-10-17T05:16:25.348Z,88.54
2022-10-17T05:18:56.096Z,88.40
2022-10-17T05:21:27.207Z,88.91
2022-10-17T05:23:54.948Z,89.35
2022-10-17T05:26:23.248Z,90.25
2022-10-17T05:28:52.149Z,89.62
2022-10-17T05:31:19.751Z,89.33
2022-10-17T05:33:49.475Z,89.29
2022-10-17T05:36:17.300Z,89.34
2022-10-17T05:38:49.378Z,89.15
2022-10-17T05:41:18.695Z,89.59
2022-10-17T05:43:47.711Z,88.77
2022-10-17T05:46:15.551Z,87.83
2022-10-17T05:48:43.153Z,87.62
2022-10-17T05:51:11.184Z,86.60
2022-10-17T05:53:40.911Z,86.01
2022-10-17T05:56:11.926Z,85.79
2022-10-17T05:59:00.674Z,85.32
2022-10-17T06:01:29.275Z,84.14
2022-10-17T06:03:57.102Z,83.03
2022-10-17T06:06:26.879Z,82.91
2022-10-17T06:08:54.722Z,82.95
2022-10-17T06:11:23.757Z,82.11
2022-10-17T06:13:51.313Z,81.49
2022-10-17T06:16:19.114Z,80.66
2022-10-17T06:21:23.710Z,80.60
2022-10-17T06:23:52.096Z,80.03
2022-10-17T06:26:20.132Z,79.87
2022-10-17T06:28:49.492Z,79.71
2022-10-17T06:31:17.621Z,78.95
2022-10-17T06:33:45.305Z,78.79
2022-10-17T06:36:17.854Z,78.58
2022-10-17T06:38:46.387Z,77.87
2022-10-17T06:41:16.190Z,77.45
2022-10-17T06:43:46.768Z,77.42
2022-10-17T06:46:17.140Z,76.23
2022-10-17T06:48:45.214Z,75.89
2022-10-17T06:51:13.459Z,76.43
2022-10-17T06:53:42.235Z,75.48
2022-10-17T06:56:10.589Z,74.41
2022-10-17T06:58:40.155Z,73.86
2022-10-17T07:01:09.896Z,73.74
2022-10-17T07:03:40.212Z,73.16
2022-10-17T07:06:08.266Z,73.73
2022-10-17T07:08:36.318Z,72.68
2022-10-17T07:11:10.474Z,72.39
2022-10-17T07:13:39.302Z,72.05
2022-10-17T07:16:07.534Z,72.06
2022-10-17T07:18:36.192Z,71.18
2022-10-17T07:21:05.963Z,70.03
2022-10-17T07:23:35.573Z,69.57
2022-10-17T07:26:05.988Z,69.80
2022-10-17T07:28:34.896Z,68.77
2022-10-17T07:31:06.957Z,67.71
2022-10-17T07:33:37.396Z,68.79
2022-10-17T07:36:07.369Z,68.65
2022-10-17T07:38:36.339Z,67.00
2022-10-17T07:41:05.982Z,66.94
2022-10-17T07:43:35.585Z,67.35
2022-10-17T07:46:05.317Z,65.88
2022-10-17T07:48:33.025Z,65.18
2022-10-17T07:51:03.926Z,65.41
2022-10-17T07:53:34.862Z,64.78
2022-10-17T07:56:05.011Z,64.10
2022-10-17T07:58:33.132Z,64.27
2022-10-17T08:03:30.582Z,63.75
2022-10-17T08:05:58.779Z,63.55
2022-10-17T08:08:27.443Z,62.25
2022-10-17T08:11:03.000Z,62.01
2022-10-17T08:13:31.895Z,61.44
2022-10-17T08:16:00.516Z,61.21
2022-10-17T08:18:28.600Z,61.18
2022-10-17T08:21:00.575Z,61.12
2022-10-17T08:23:29.136Z,61.30
2022-10-17T08:26:01.351Z,61.58
2022-10-17T08:28:29.675Z,59.95
2022-10-17T08:31:03.298Z,60.31
2022-10-17T08:33:31.146Z,58.95
2022-10-17T08:35:59.508Z,59.50
2022-10-17T08:38:34.701Z,59.43
2022-10-17T08:41:11.466Z,58.12
2022-10-17T08:44:02.250Z,58.77
2022-10-17T08:46:32.747Z,59.07
2022-10-17T08:49:05.078Z,57.83
2022-10-17T08:51:43.856Z,57.90
2022-10-17T08:54:17.870Z,57.86
2022-10-17T08:56:50.871Z,58.37
2022-10-17T08:59:23.210Z,57.60
2022-10-17T09:01:58.862Z,57.70
2022-10-17T09:04:58.383Z,57.91
2022-10-17T09:07:37.214Z,57.57
2022-10-17T09:10:13.814Z,57.32
2022-10-17T09:12:51.733Z,57.67
2022-10-17T09:15:52.718Z,57.96
2022-10-17T09:18:26.103Z,57.22
2022-10-17T09:20:55.831Z,57.98
2022-10-17T09:23:27.921Z,56.84
2022-10-17T09:25:58.392Z,58.53
2022-10-17T09:28:32.495Z,57.12
2022-10-17T09:31:03.179Z,57.26
2022-10-17T09:33:53.422Z,57.91
2022-10-17T09:36:24.598Z,56.77
2022-10-17T09:38:54.798Z,57.10
2022-10-17T09:41:44.175Z,56.73
2022-10-17T09:44:18.391Z,55.17
2022-10-17T09:47:02.009Z,55.71
2022-10-17T09:49:35.771Z,54.67
2022-10-17T09:52:06.432Z,53.19
2022-10-17T09:54:42.379Z,53.92
2022-10-17T09:57:11.889Z,55.28
2022-10-17T09:59:44.390Z,55.30
2022-10-17T10:02:20.742Z,55.66
2022-10-17T10:05:05.555Z,55.12
2022-10-17T10:07:35.798Z,54.62
2022-10-17T10:10:07.631Z,52.76
2022-10-17T10:12:39.713Z,51.45
2022-10-17T10:15:34.709Z,51.75
2022-10-17T10:18:02.625Z,52.77
2022-10-17T10:20:34.278Z,55.00
2022-10-17T10:23:17.489Z,54.74
2022-10-17T10:25:58.106Z,55.09
2022-10-17T10:28:29.682Z,55.48
2022-10-17T10:31:01.499Z,55.26
2022-10-17T10:33:30.775Z,54.32
2022-10-17T10:36:00.228Z,55.24
2022-10-17T10:38:30.205Z,55.53
2022-10-17T10:41:03.603Z,55.52
2022-10-17T10:43:36.652Z,54.98
2022-10-17T10:46:06.910Z,53.95
2022-10-17T10:48:36.844Z,53.38
2022-10-17T10:51:08.133Z,52.90
2022-10-17T10:53:44.472Z,53.09
2022-10-17T10:56:18.406Z,53.19
2022-10-17T10:58:55.497Z,53.44
2022-10-17T11:01:31.556Z,53.67
2022-10-17T11:04:13.660Z,53.57
2022-10-17T11:06:44.360Z,52.67
2022-10-17T11:09:23.678Z,52.73
2022-10-17T11:11:56.324Z,53.24
2022-10-17T11:14:34.865Z,53.48
2022-10-17T11:17:12.611Z,52.51
2022-10-17T11:19:45.916Z,52.63
2022-10-17T11:22:17.047Z,52.76
2022-10-17T11:24:53.171Z,52.19
2022-10-17T11:27:21.818Z,52.96
2022-10-17T11:29:49.565Z,54.39
2022-10-17T11:32:24.100Z,53.67
2022-10-17T11:34:55.720Z,54.16
2022-10-17T11:37:26.973Z,55.06
2022-10-17T11:40:00.105Z,55.47
2022-10-17T11:42:33.131Z,53.99
2022-10-17T11:45:06.182Z,50.89
2022-10-17T11:47:41.623Z,51.34
2022-10-17T11:53:13.273Z,51.98
2022-10-17T11:55:42.298Z,53.06
2022-10-17T11:58:30.305Z,52.12
2022-10-17T12:01:07.081Z,51.12
2022-10-17T12:03:51.885Z,51.95
2022-10-17T12:06:35.827Z,52.47
2022-10-17T12:09:12.677Z,55.03
2022-10-17T12:11:49.058Z,53.37
2022-10-17T12:14:42.336Z,51.87
2022-10-17T12:17:28.927Z,51.46
2022-10-17T12:20:25.459Z,51.20
2022-10-17T12:22:55.034Z,50.86
2022-10-17T12:25:24.651Z,48.33
2022-10-17T12:28:14.157Z,49.11
2022-10-17T12:30:58.182Z,49.78
2022-10-17T12:33:38.166Z,51.59
2022-10-17T12:36:45.363Z,50.61
2022-10-17T12:39:48.536Z,51.25
2022-10-17T12:42:48.443Z,53.12
2022-10-17T12:45:46.577Z,54.54
2022-10-17T12:48:34.208Z,53.52
2022-10-17T12:53:59.537Z,52.74
2022-10-17T12:56:37.507Z,52.05
2022-10-17T12:59:13.832Z,50.19
2022-10-17T13:01:46.346Z,51.07
2022-10-17T13:04:14.560Z,50.29
2022-10-17T13:06:48.375Z,49.78
2022-10-17T13:09:23.007Z,50.76
2022-10-17T13:11:52.759Z,52.20
2022-10-17T13:14:22.926Z,51.64
2022-10-17T13:16:53.090Z,50.17
2022-10-17T13:19:23.771Z,51.28
2022-10-17T13:21:53.962Z,49.74
2022-10-17T13:24:28.829Z,49.22
2022-10-17T13:26:57.363Z,49.17
2022-10-17T13:29:26.699Z,49.98
2022-10-17T13:31:56.449Z,50.94
2022-10-17T13:34:26.315Z,50.27
2022-10-17T13:36:57.482Z,50.34
2022-10-17T13:39:44.756Z,51.81
2022-10-17T13:42:22.858Z,51.63
2022-10-17T13:44:50.925Z,51.47
2022-10-17T13:47:23.476Z,50.96
2022-10-17T13:49:55.274Z,52.10
2022-10-17T13:52:28.323Z,51.80
2022-10-17T13:55:07.637Z,50.84
2022-10-17T13:57:35.379Z,50.78
2022-10-17T14:00:10.039Z,51.01
2022-10-17T14:02:41.466Z,52.05
2022-10-17T14:05:17.245Z,52.35
2022-10-17T14:10:44.783Z,53.00
2022-10-17T14:13:22.155Z,52.38
2022-10-17T14:15:51.471Z,52.63
2022-10-17T14:18:24.109Z,55.02
2022-10-17T14:21:34.312Z,55.77
2022-10-17T14:23:44.147Z,56.25
2022-10-17T14:26:15.363Z,58.97
2022-10-17T14:28:45.674Z,57.63
2022-10-17T14:31:22.284Z,59.25
2022-10-17T14:33:51.408Z,58.36
2022-10-17T14:36:20.452Z,59.04
2022-10-17T14:38:52.432Z,58.48
2022-10-17T14:41:42.002Z,58.98
2022-10-17T14:44:19.291Z,59.62
2022-10-17T14:46:51.019Z,60.23
2022-10-17T14:49:25.327Z,61.36
2022-10-17T14:52:27.428Z,61.80
2022-10-17T14:54:57.610Z,62.98
2022-10-17T14:57:43.145Z,63.84
2022-10-17T15:00:15.169Z,64.55
2022-10-17T15:02:43.469Z,64.95
2022-10-17T15:05:13.584Z,65.22
2022-10-17T15:07:42.620Z,66.11
2022-10-17T15:10:31.000Z,67.25
2022-10-17T15:13:15.849Z,67.29
2022-10-17T15:15:49.096Z,68.04
2022-10-17T15:18:18.343Z,69.02
2022-10-17T15:20:46.467Z,70.28
2022-10-17T15:23:14.049Z,69.50
2022-10-17T15:25:45.027Z,70.99
2022-10-17T15:28:13.518Z,72.85
2022-10-17T15:30:42.075Z,73.66
2022-10-17T15:33:09.817Z,73.49
2022-10-17T15:35:37.611Z,74.05
2022-10-17T15:38:07.226Z,74.45
2022-10-17T15:40:35.235Z,75.49
2022-10-17T15:43:04.381Z,76.27
2022-10-17T15:45:33.650Z,76.53
2022-10-17T15:48:06.112Z,76.75
2022-10-17T15:50:33.642Z,76.51
2022-10-17T15:53:01.247Z,78.04
2022-10-17T15:55:29.178Z,78.01
2022-10-17T15:57:57.081Z,79.11
2022-10-17T16:00:26.148Z,79.03
2022-10-17T16:02:54.045Z,78.46
2022-10-17T16:05:24.097Z,79.53
2022-10-17T16:07:53.308Z,79.68
2022-10-17T16:10:22.294Z,80.84
2022-10-17T16:12:50.396Z,80.77
2022-10-17T16:15:23.744Z,80.27
2022-10-17T16:17:53.893Z,80.81
2022-10-17T16:20:23.164Z,80.71
2022-10-17T16:22:51.969Z,80.42
2022-10-17T16:25:23.710Z,81.16
2022-10-17T16:27:54.393Z,81.53
2022-10-17T16:30:23.589Z,81.91
2022-10-17T16:32:54.211Z,82.16
2022-10-17T16:35:23.962Z,82.40
2022-10-17T16:37:54.014Z,81.77
2022-10-17T16:40:21.968Z,82.34
2022-10-17T16:42:49.630Z,84.12
2022-10-17T16:45:19.823Z,82.79
2022-10-17T16:47:47.755Z,82.69
2022-10-17T16:50:18.101Z,83.42
2022-10-17T16:52:46.066Z,84.16
2022-10-17T16:55:13.621Z,84.07
2022-10-17T17:00:13.115Z,84.61
2022-10-17T17:02:41.335Z,84.59
2022-10-17T17:05:09.947Z,84.55
2022-10-17T17:07:39.556Z,85.44
2022-10-17T17:10:07.960Z,84.64
2022-10-17T17:12:37.058Z,84.26
2022-10-17T17:15:05.622Z,85.90
2022-10-17T17:17:48.793Z,85.73
2022-10-17T17:20:18.176Z,84.24
2022-10-17T17:22:47.752Z,85.09
2022-10-17T17:25:15.702Z,85.71
2022-10-17T17:27:43.420Z,86.79
2022-10-17T17:30:12.076Z,84.55
2022-10-17T17:32:40.156Z,84.67
2022-10-17T17:35:09.184Z,86.54
2022-10-17T17:37:37.701Z,84.61
2022-10-17T17:40:08.526Z,85.17
2022-10-17T17:42:36.769Z,85.56
2022-10-17T17:45:05.452Z,87.08
2022-10-17T17:47:33.533Z,86.40
2022-10-17T17:50:03.640Z,85.44
2022-10-17T17:52:31.904Z,86.39
2022-10-17T17:54:59.711Z,85.41
2022-10-17T17:57:30.740Z,85.04
2022-10-17T17:59:58.354Z,85.12
2022-10-17T18:02:26.013Z,85.39
2022-10-17T18:04:54.321Z,86.05
2022-10-17T18:07:22.284Z,87.78
2022-10-17T18:09:52.647Z,87.54
2022-10-17T18:12:21.117Z,86.07
2022-10-17T18:14:50.119Z,87.59
2022-10-17T18:17:18.602Z,88.92
2022-10-17T18:19:47.210Z,89.09
2022-10-17T18:22:15.300Z,88.99
2022-10-17T18:24:43.299Z,87.34
2022-10-17T18:27:11.038Z,86.63
2022-10-17T18:29:38.802Z,86.86
2022-10-17T18:32:08.066Z,87.45
2022-10-17T18:34:36.101Z,87.11
2022-10-17T18:37:03.834Z,87.42
2022-10-17T18:39:31.579Z,88.15
2022-10-17T18:41:59.305Z,87.71
2022-10-17T18:44:27.047Z,87.97
2022-10-17T18:46:55.751Z,87.72
2022-10-17T18:49:26.597Z,87.98
2022-10-17T18:51:54.210Z,87.24
2022-10-17T18:54:22.240Z,87.84
2022-10-17T18:56:52.385Z,86.73
2022-10-17T18:59:20.992Z,87.62
2022-10-17T19:01:49.003Z,86.82
2022-10-17T19:04:18.134Z,85.71
2022-10-17T19:06:47.114Z,85.92
2022-10-17T19:09:15.025Z,85.91
2022-10-17T19:11:43.307Z,85.31
2022-10-17T19:14:15.079Z,85.15
2022-10-17T19:16:49.168Z,84.58
2022-10-17T19:19:19.928Z,85.49
2022-10-17T19:21:51.544Z,85.42
2022-10-17T19:24:20.808Z,84.51
2022-10-17T19:26:50.192Z,83.30
2022-10-17T19:29:18.560Z,83.61
2022-10-17T19:31:47.764Z,83.78
2022-10-17T19:34:17.280Z,83.77
2022-10-17T19:36:46.604Z,84.36
2022-10-17T19:39:17.161Z,84.70
2022-10-17T19:41:48.148Z,85.22
2022-10-17T19:44:16.205Z,84.14
2022-10-17T19:46:44.359Z,85.73
2022-10-17T19:49:13.404Z,85.97
2022-10-17T19:51:41.300Z,85.06
2022-10-17T19:54:09.443Z,85.55
2022-10-17T19:56:41.016Z,85.31
2022-10-17T19:59:11.534Z,85.52
2022-10-17T20:01:39.998Z,84.83
2022-10-17T20:04:09.133Z,85.10
2022-10-17T20:06:37.744Z,85.05
2022-10-17T20:09:07.337Z,85.16
2022-10-17T20:11:38.098Z,85.83
2022-10-17T20:14:07.359Z,86.30
2022-10-17T20:16:36.398Z,86.51
2022-10-17T20:19:05.898Z,86.55
2022-10-17T20:21:34.211Z,86.73
2022-10-17T20:24:04.214Z,86.73
2022-10-17T20:26:38.026Z,87.16
2022-10-17T20:29:11.708Z,86.84
2022-10-17T20:31:41.755Z,87.25
2022-10-17T20:34:11.803Z,86.14
2022-10-17T20:36:41.616Z,85.87
2022-10-17T20:39:11.432Z,85.71
2022-10-17T20:41:40.384Z,86.10
2022-10-17T20:44:09.923Z,86.46
2022-10-17T20:46:44.831Z,86.44
2022-10-17T20:49:18.016Z,85.93
2022-10-17T20:51:46.091Z,86.41
2022-10-17T20:54:13.695Z,86.46
2022-10-17T20:56:41.519Z,85.76
2022-10-17T20:59:14.677Z,86.22
2022-10-17T21:01:42.846Z,86.99
2022-10-17T21:04:40.318Z,87.35
2022-10-17T21:06:58.544Z,86.42
2022-10-17T21:09:26.380Z,85.66
2022-10-17T21:11:55.248Z,85.98
2022-10-17T21:14:25.758Z,85.65
2022-10-17T21:16:55.208Z,85.43
2022-10-17T21:19:22.795Z,86.59
2022-10-17T21:21:50.914Z,85.92
2022-10-17T21:24:18.752Z,85.82
2022-10-17T21:26:48.090Z,85.72
2022-10-17T21:29:16.624Z,85.99
2022-10-17T21:31:45.726Z,86.57
2022-10-17T21:34:14.514Z,86.34
2022-10-17T21:36:43.257Z,86.70
2022-10-17T21:39:12.732Z,87.27
2022-10-17T21:41:40.973Z,87.47
2022-10-17T21:44:12.843Z,87.42
2022-10-17T21:46:40.942Z,88.17
2022-10-17T21:49:12.139Z,88.58
2022-10-17T21:51:40.499Z,87.62
2022-10-17T21:54:08.678Z,87.62
2022-10-17T21:56:37.264Z,87.47
2022-10-17T21:59:09.462Z,87.60
2022-10-17T22:01:39.692Z,87.89
2022-10-17T22:04:10.395Z,87.49
2022-10-17T22:06:44.307Z,88.42
2022-10-17T22:09:15.081Z,88.24
2022-10-17T22:11:46.613Z,87.49
2022-10-17T22:14:16.763Z,87.85
2022-10-17T22:16:44.756Z,87.75
2022-10-17T22:19:14.890Z,87.71
2022-10-17T22:21:45.565Z,89.52
2022-10-17T22:24:14.935Z,88.05
2022-10-17T22:26:43.269Z,87.66
2022-10-17T22:29:13.191Z,87.61
2022-10-17T22:31:41.912Z,87.89
2022-10-17T22:34:12.368Z,88.07
2022-10-17T22:36:40.576Z,88.27
2022-10-17T22:39:10.457Z,88.21
2022-10-17T22:41:38.044Z,87.17
2022-10-17T22:44:06.422Z,87.06
2022-10-17T22:46:34.041Z,87.85
2022-10-17T22:49:01.605Z,87.76
2022-10-17T22:51:29.252Z,87.69
2022-10-17T22:53:57.214Z,87.92
2022-10-17T22:56:26.187Z,87.60
2022-10-17T22:58:54.177Z,87.86
2022-10-17T23:01:26.115Z,87.92
2022-10-17T23:03:54.322Z,88.35
2022-10-17T23:06:22.500Z,89.71
2022-10-17T23:08:50.375Z,88.58
2022-10-17T23:11:18.675Z,88.80
2022-10-17T23:13:48.658Z,88.71
2022-10-17T23:16:16.218Z,88.13
2022-10-17T23:18:46.166Z,88.33
2022-10-17T23:21:13.941Z,89.67
2022-10-17T23:23:41.748Z,88.81
2022-10-17T23:26:13.220Z,89.99
2022-10-17T23:28:42.694Z,89.10
2022-10-17T23:31:15.109Z,87.36
2022-10-17T23:33:44.608Z,88.11
2022-10-17T23:36:15.094Z,89.32
2022-10-17T23:38:44.457Z,89.20
2022-10-17T23:41:12.893Z,89.19
2022-10-17T23:43:43.528Z,89.23
2022-10-17T23:46:13.114Z,89.18
2022-10-17T23:48:42.788Z,89.21
2022-10-17T23:51:11.248Z,90.65
2022-10-17T23:53:40.538Z,89.08
2022-10-17T23:56:09.468Z,88.15
2022-10-17T23:58:38.468Z,88.35
